JOS606 MMTP-MGGT
Flight info
| Callsign | JOS606 |
|---|---|
| Flight time | 0h 37m |
| Altitude | 17000 |
| Route | TAP4B TAP UR644 IMASO IMASO2C |
| Aircraft | AT46/M-SDFGIRY/S |
Departure
| Time | 2026-04-28 22:44 |
|---|---|
| Airport | Tapachula International Airport (MMTP) |
Arrival
| Time | 2026-04-28 23:22 |
|---|---|
| Airport | La Aurora International Airport (MGGT) |
| Time | Latitude | Longitude | Altitude | Speed | Heading |
|---|---|---|---|---|---|
| 2026-04-28 22:31 | 14.79089 | -92.36985 | 80 ft | 0 kts | 146° |
| 2026-04-28 22:37 | 14.79101 | -92.36993 | 80 ft | 6 kts | 146° |
| 2026-04-28 22:37 | 14.79130 | -92.37013 | 82 ft | 4 kts | 153° |
| 2026-04-28 22:37 | 14.79132 | -92.37013 | 81 ft | 0 kts | 150° |
| 2026-04-28 22:38 | 14.79139 | -92.36996 | 82 ft | 10 kts | 22° |
| 2026-04-28 22:38 | 14.79166 | -92.36971 | 83 ft | 8 kts | 50° |
| 2026-04-28 22:39 | 14.79218 | -92.36920 | 80 ft | 11 kts | 6° |
| 2026-04-28 22:39 | 14.79292 | -92.36915 | 82 ft | 12 kts | 27° |
| 2026-04-28 22:39 | 14.79373 | -92.36872 | 82 ft | 14 kts | 26° |
| 2026-04-28 22:39 | 14.79463 | -92.36828 | 83 ft | 14 kts | 24° |
| 2026-04-28 22:40 | 14.79553 | -92.36790 | 86 ft | 14 kts | 22° |
| 2026-04-28 22:40 | 14.79620 | -92.36721 | 89 ft | 14 kts | 56° |
| 2026-04-28 22:40 | 14.79677 | -92.36635 | 88 ft | 15 kts | 56° |
| 2026-04-28 22:40 | 14.79733 | -92.36547 | 90 ft | 15 kts | 57° |
| 2026-04-28 22:41 | 14.79792 | -92.36455 | 91 ft | 16 kts | 57° |
| 2026-04-28 22:41 | 14.79853 | -92.36361 | 91 ft | 16 kts | 54° |
| 2026-04-28 22:41 | 14.79912 | -92.36268 | 93 ft | 15 kts | 81° |
| 2026-04-28 22:41 | 14.79905 | -92.36230 | 92 ft | 1 kts | 44° |
| 2026-04-28 22:42 | 14.79935 | -92.36242 | 94 ft | 2 kts | 274° |
| 2026-04-28 22:42 | 14.79931 | -92.36248 | 94 ft | 0 kts | 237° |
| 2026-04-28 22:44 | 14.79824 | -92.36409 | 90 ft | 65 kts | 236° |
| 2026-04-28 22:44 | 14.79424 | -92.37015 | 201 ft | 129 kts | 234° |
| 2026-04-28 22:44 | 14.78870 | -92.37839 | 853 ft | 142 kts | 235° |
| 2026-04-28 22:45 | 14.78312 | -92.38736 | 1594 ft | 152 kts | 232° |
| 2026-04-28 22:45 | 14.77664 | -92.39593 | 2431 ft | 151 kts | 232° |
| 2026-04-28 22:45 | 14.77042 | -92.40482 | 3008 ft | 154 kts | 234° |
| 2026-04-28 22:45 | 14.76448 | -92.41410 | 3567 ft | 156 kts | 236° |
| 2026-04-28 22:46 | 14.75859 | -92.42353 | 4139 ft | 157 kts | 237° |
| 2026-04-28 22:46 | 14.75257 | -92.43296 | 4688 ft | 158 kts | 237° |
| 2026-04-28 22:46 | 14.74642 | -92.44251 | 5217 ft | 160 kts | 237° |
| 2026-04-28 22:46 | 14.74001 | -92.45201 | 5755 ft | 163 kts | 228° |
| 2026-04-28 22:47 | 14.72951 | -92.45655 | 6108 ft | 179 kts | 176° |
| 2026-04-28 22:47 | 14.71833 | -92.45088 | 6501 ft | 186 kts | 128° |
| 2026-04-28 22:47 | 14.71426 | -92.43868 | 7001 ft | 182 kts | 83° |
| 2026-04-28 22:47 | 14.71979 | -92.42751 | 7529 ft | 177 kts | 37° |
| 2026-04-28 22:48 | 14.73051 | -92.42130 | 7958 ft | 178 kts | 28° |
| 2026-04-28 22:48 | 14.74174 | -92.41589 | 8438 ft | 179 kts | 9° |
| 2026-04-28 22:48 | 14.75355 | -92.41910 | 8899 ft | 184 kts | 322° |
| 2026-04-28 22:48 | 14.75953 | -92.43085 | 9332 ft | 195 kts | 278° |
| 2026-04-28 22:49 | 14.75595 | -92.44445 | 9732 ft | 205 kts | 235° |
| 2026-04-28 22:49 | 14.74435 | -92.45286 | 10112 ft | 208 kts | 193° |
| 2026-04-28 22:49 | 14.73037 | -92.45188 | 10492 ft | 201 kts | 150° |
| 2026-04-28 22:49 | 14.72042 | -92.44217 | 10676 ft | 204 kts | 111° |
| 2026-04-28 22:50 | 14.71891 | -92.42756 | 10713 ft | 213 kts | 72° |
| 2026-04-28 22:50 | 14.72688 | -92.41466 | 10762 ft | 218 kts | 44° |
| 2026-04-28 22:50 | 14.73492 | -92.40138 | 10804 ft | 228 kts | 76° |
| 2026-04-28 22:50 | 14.73472 | -92.38480 | 11006 ft | 233 kts | 91° |
| 2026-04-28 22:51 | 14.73372 | -92.36809 | 11241 ft | 233 kts | 89° |
| 2026-04-28 22:51 | 14.73392 | -92.35164 | 11480 ft | 232 kts | 83° |
| 2026-04-28 22:51 | 14.73567 | -92.33515 | 11709 ft | 231 kts | 78° |
| 2026-04-28 22:51 | 14.73858 | -92.31864 | 11929 ft | 231 kts | 76° |
| 2026-04-28 22:52 | 14.74173 | -92.30263 | 12143 ft | 231 kts | 76° |
| 2026-04-28 22:52 | 14.74503 | -92.28636 | 12361 ft | 231 kts | 76° |
| 2026-04-28 22:52 | 14.74811 | -92.27009 | 12571 ft | 231 kts | 77° |
| 2026-04-28 22:52 | 14.75100 | -92.25372 | 12765 ft | 231 kts | 77° |
| 2026-04-28 22:53 | 14.75388 | -92.23736 | 12947 ft | 231 kts | 77° |
| 2026-04-28 22:53 | 14.75679 | -92.22099 | 13125 ft | 232 kts | 77° |
| 2026-04-28 22:53 | 14.75970 | -92.20462 | 13291 ft | 232 kts | 77° |
| 2026-04-28 22:53 | 14.76264 | -92.18823 | 13465 ft | 232 kts | 77° |
| 2026-04-28 22:54 | 14.76457 | -92.17737 | 13564 ft | 232 kts | 77° |
| 2026-04-28 22:54 | 14.76746 | -92.16097 | 13720 ft | 231 kts | 79° |
| 2026-04-28 22:54 | 14.76599 | -92.14431 | 13787 ft | 238 kts | 99° |
| 2026-04-28 22:54 | 14.76184 | -92.12770 | 13914 ft | 239 kts | 100° |
| 2026-04-28 22:55 | 14.75766 | -92.11107 | 14040 ft | 239 kts | 100° |
| 2026-04-28 22:55 | 14.75379 | -92.09432 | 14123 ft | 241 kts | 98° |
| 2026-04-28 22:55 | 14.75023 | -92.07720 | 14130 ft | 246 kts | 98° |
| 2026-04-28 22:55 | 14.74677 | -92.05974 | 14136 ft | 250 kts | 97° |
| 2026-04-28 22:56 | 14.74338 | -92.04205 | 14146 ft | 252 kts | 97° |
| 2026-04-28 22:56 | 14.74002 | -92.02415 | 14141 ft | 254 kts | 97° |
| 2026-04-28 22:56 | 14.73656 | -92.00637 | 14325 ft | 248 kts | 98° |
| 2026-04-28 22:56 | 14.73313 | -91.98936 | 14678 ft | 237 kts | 98° |
| 2026-04-28 22:57 | 14.72980 | -91.97291 | 14933 ft | 233 kts | 97° |
| 2026-04-28 22:57 | 14.72650 | -91.95657 | 15095 ft | 233 kts | 97° |
| 2026-04-28 22:57 | 14.72318 | -91.94017 | 15250 ft | 233 kts | 97° |
| 2026-04-28 22:57 | 14.71993 | -91.92396 | 15404 ft | 234 kts | 97° |
| 2026-04-28 22:58 | 14.71661 | -91.90749 | 15555 ft | 235 kts | 97° |
| 2026-04-28 22:58 | 14.71326 | -91.89094 | 15707 ft | 235 kts | 97° |
| 2026-04-28 22:58 | 14.70991 | -91.87439 | 15853 ft | 235 kts | 97° |
| 2026-04-28 22:58 | 14.70657 | -91.85782 | 15990 ft | 236 kts | 97° |
| 2026-04-28 22:59 | 14.70321 | -91.84122 | 16126 ft | 237 kts | 97° |
| 2026-04-28 22:59 | 14.69985 | -91.82457 | 16249 ft | 237 kts | 97° |
| 2026-04-28 22:59 | 14.69646 | -91.80787 | 16384 ft | 238 kts | 97° |
| 2026-04-28 22:59 | 14.69309 | -91.79112 | 16492 ft | 239 kts | 97° |
| 2026-04-28 23:00 | 14.68970 | -91.77440 | 16640 ft | 238 kts | 97° |
| 2026-04-28 23:00 | 14.68631 | -91.75745 | 16763 ft | 238 kts | 97° |
| 2026-04-28 23:00 | 14.68302 | -91.74097 | 16894 ft | 238 kts | 96° |
| 2026-04-28 23:00 | 14.67964 | -91.72414 | 16943 ft | 241 kts | 97° |
| 2026-04-28 23:01 | 14.67609 | -91.70709 | 16973 ft | 244 kts | 97° |
| 2026-04-28 23:01 | 14.66223 | -91.63883 | 16997 ft | 254 kts | 97° |
| 2026-04-28 23:01 | 14.65269 | -91.59185 | 17000 ft | 259 kts | 97° |
| 2026-04-28 23:01 | 14.64898 | -91.57362 | 16997 ft | 260 kts | 97° |
| 2026-04-28 23:02 | 14.64467 | -91.55541 | 16994 ft | 262 kts | 100° |
| 2026-04-28 23:02 | 14.64031 | -91.53712 | 16999 ft | 262 kts | 97° |
| 2026-04-28 23:02 | 14.63720 | -91.51864 | 17007 ft | 261 kts | 92° |
| 2026-04-28 23:02 | 14.63612 | -91.50007 | 17016 ft | 258 kts | 86° |
| 2026-04-28 23:03 | 14.63679 | -91.48155 | 17099 ft | 257 kts | 81° |
| 2026-04-28 23:03 | 14.63936 | -91.46331 | 17105 ft | 257 kts | 76° |
| 2026-04-28 23:03 | 14.64321 | -91.44532 | 17117 ft | 257 kts | 72° |
| 2026-04-28 23:03 | 14.64866 | -91.42779 | 17111 ft | 256 kts | 67° |
| 2026-04-28 23:04 | 14.65538 | -91.41078 | 17109 ft | 256 kts | 64° |
| 2026-04-28 23:04 | 14.67267 | -91.37902 | 17118 ft | 252 kts | 57° |
| 2026-04-28 23:04 | 14.68169 | -91.36346 | 17122 ft | 252 kts | 58° |
| 2026-04-28 23:05 | 14.69029 | -91.34771 | 17125 ft | 251 kts | 63° |
| 2026-04-28 23:05 | 14.69678 | -91.33088 | 17150 ft | 253 kts | 68° |
| 2026-04-28 23:05 | 14.70199 | -91.31346 | 17137 ft | 254 kts | 73° |
| 2026-04-28 23:05 | 14.70546 | -91.29548 | 17142 ft | 256 kts | 77° |
| 2026-04-28 23:06 | 14.70829 | -91.27731 | 17154 ft | 257 kts | 78° |
| 2026-04-28 23:06 | 14.71079 | -91.25904 | 17150 ft | 257 kts | 79° |
| 2026-04-28 23:06 | 14.71279 | -91.24066 | 17155 ft | 258 kts | 81° |
| 2026-04-28 23:06 | 14.71455 | -91.22203 | 16968 ft | 265 kts | 81° |
| 2026-04-28 23:07 | 14.71646 | -91.20288 | 16755 ft | 271 kts | 81° |
| 2026-04-28 23:07 | 14.71840 | -91.18338 | 16543 ft | 276 kts | 81° |
| 2026-04-28 23:07 | 14.72038 | -91.16356 | 16327 ft | 279 kts | 81° |
| 2026-04-28 23:07 | 14.72241 | -91.14353 | 16113 ft | 282 kts | 81° |
| 2026-04-28 23:08 | 14.72444 | -91.12335 | 15884 ft | 283 kts | 81° |
| 2026-04-28 23:08 | 14.72646 | -91.10308 | 15677 ft | 284 kts | 81° |
| 2026-04-28 23:08 | 14.72851 | -91.08273 | 15520 ft | 284 kts | 81° |
| 2026-04-28 23:08 | 14.73054 | -91.06248 | 15384 ft | 284 kts | 81° |
| 2026-04-28 23:09 | 14.73255 | -91.04222 | 15247 ft | 283 kts | 81° |
| 2026-04-28 23:09 | 14.73458 | -91.02197 | 15102 ft | 283 kts | 81° |
| 2026-04-28 23:09 | 14.73659 | -91.00170 | 14976 ft | 283 kts | 81° |
| 2026-04-28 23:09 | 14.73854 | -90.98148 | 14831 ft | 283 kts | 81° |
| 2026-04-28 23:10 | 14.74044 | -90.96129 | 14685 ft | 282 kts | 81° |
| 2026-04-28 23:10 | 14.74236 | -90.94110 | 14566 ft | 283 kts | 81° |
| 2026-04-28 23:10 | 14.74427 | -90.92088 | 14430 ft | 283 kts | 81° |
| 2026-04-28 23:10 | 14.74616 | -90.90094 | 14299 ft | 283 kts | 81° |
| 2026-04-28 23:11 | 14.74813 | -90.88050 | 14154 ft | 282 kts | 81° |
| 2026-04-28 23:11 | 14.75016 | -90.86056 | 14009 ft | 282 kts | 81° |
| 2026-04-28 23:11 | 14.75220 | -90.84052 | 13851 ft | 280 kts | 81° |
| 2026-04-28 23:11 | 14.75424 | -90.82057 | 13694 ft | 278 kts | 81° |
| 2026-04-28 23:12 | 14.75626 | -90.80070 | 13505 ft | 279 kts | 80° |
| 2026-04-28 23:12 | 14.75831 | -90.78075 | 13312 ft | 280 kts | 81° |
| 2026-04-28 23:12 | 14.76043 | -90.76078 | 13085 ft | 280 kts | 81° |
| 2026-04-28 23:12 | 14.76245 | -90.74081 | 12877 ft | 280 kts | 81° |
| 2026-04-28 23:13 | 14.76444 | -90.72071 | 12656 ft | 282 kts | 81° |
| 2026-04-28 23:13 | 14.76642 | -90.70060 | 12598 ft | 281 kts | 82° |
| 2026-04-28 23:13 | 14.76836 | -90.68066 | 12436 ft | 277 kts | 82° |
| 2026-04-28 23:13 | 14.77017 | -90.66098 | 12271 ft | 273 kts | 82° |
| 2026-04-28 23:14 | 14.77194 | -90.64151 | 12095 ft | 271 kts | 82° |
| 2026-04-28 23:14 | 14.77370 | -90.62223 | 11927 ft | 269 kts | 82° |
| 2026-04-28 23:14 | 14.77551 | -90.60303 | 11765 ft | 268 kts | 82° |
| 2026-04-28 23:14 | 14.77740 | -90.58395 | 11595 ft | 267 kts | 82° |
| 2026-04-28 23:15 | 14.77892 | -90.56484 | 11360 ft | 265 kts | 84° |
| 2026-04-28 23:15 | 14.77905 | -90.54722 | 10941 ft | 237 kts | 91° |
| 2026-04-28 23:15 | 14.77523 | -90.53035 | 10290 ft | 239 kts | 108° |
| 2026-04-28 23:15 | 14.76708 | -90.51587 | 9631 ft | 229 kts | 124° |
| 2026-04-28 23:16 | 14.75534 | -90.50526 | 8966 ft | 228 kts | 153° |
| 2026-04-28 23:16 | 14.73973 | -90.50360 | 8494 ft | 230 kts | 191° |
| 2026-04-28 23:16 | 14.72579 | -90.51181 | 8175 ft | 237 kts | 228° |
| 2026-04-28 23:16 | 14.71892 | -90.52670 | 8101 ft | 227 kts | 265° |
| 2026-04-28 23:17 | 14.72154 | -90.54199 | 8040 ft | 211 kts | 302° |
| 2026-04-28 23:17 | 14.73179 | -90.55143 | 8017 ft | 192 kts | 343° |
| 2026-04-28 23:17 | 14.74420 | -90.55122 | 8017 ft | 179 kts | 27° |
| 2026-04-28 23:17 | 14.75218 | -90.54201 | 8011 ft | 177 kts | 72° |
| 2026-04-28 23:18 | 14.75080 | -90.52957 | 8000 ft | 180 kts | 119° |
| 2026-04-28 23:18 | 14.74268 | -90.51994 | 8003 ft | 180 kts | 129° |
| 2026-04-28 23:18 | 14.73315 | -90.51151 | 7923 ft | 186 kts | 143° |
| 2026-04-28 23:18 | 14.72140 | -90.50484 | 7744 ft | 197 kts | 153° |
| 2026-04-28 23:19 | 14.70794 | -90.50044 | 7495 ft | 209 kts | 163° |
| 2026-04-28 23:19 | 14.69359 | -90.49712 | 7265 ft | 207 kts | 166° |
| 2026-04-28 23:19 | 14.67994 | -90.49496 | 7003 ft | 190 kts | 178° |
| 2026-04-28 23:19 | 14.66744 | -90.49839 | 6736 ft | 187 kts | 198° |
| 2026-04-28 23:20 | 14.65539 | -90.50308 | 6564 ft | 182 kts | 198° |
| 2026-04-28 23:20 | 14.64392 | -90.50747 | 6272 ft | 169 kts | 198° |
| 2026-04-28 23:20 | 14.63329 | -90.51127 | 5985 ft | 155 kts | 197° |
| 2026-04-28 23:20 | 14.62387 | -90.51445 | 5726 ft | 129 kts | 196° |
| 2026-04-28 23:21 | 14.61585 | -90.51707 | 5524 ft | 119 kts | 192° |
| 2026-04-28 23:21 | 14.60828 | -90.51959 | 5398 ft | 108 kts | 194° |
| 2026-04-28 23:21 | 14.60106 | -90.52174 | 5181 ft | 107 kts | 195° |
| 2026-04-28 23:21 | 14.59409 | -90.52401 | 5006 ft | 102 kts | 195° |
| 2026-04-28 23:22 | 14.58810 | -90.52595 | 4947 ft | 80 kts | 194° |
| 2026-04-28 23:22 | 14.58559 | -90.52683 | 4939 ft | 10 kts | 220° |
| 2026-04-28 23:22 | 14.58561 | -90.52733 | 4940 ft | 6 kts | 326° |
| 2026-04-28 23:22 | 14.58616 | -90.52726 | 4939 ft | 11 kts | 17° |
| 2026-04-28 23:23 | 14.58700 | -90.52698 | 4945 ft | 14 kts | 17° |
| 2026-04-28 23:23 | 14.58804 | -90.52663 | 4945 ft | 17 kts | 18° |
| 2026-04-28 23:23 | 14.58922 | -90.52623 | 4949 ft | 18 kts | 18° |
| 2026-04-28 23:23 | 14.59042 | -90.52584 | 4954 ft | 18 kts | 16° |
| 2026-04-28 23:24 | 14.59162 | -90.52548 | 4958 ft | 18 kts | 15° |
| 2026-04-28 23:24 | 14.59286 | -90.52509 | 4962 ft | 16 kts | 16° |
| 2026-04-28 23:24 | 14.59376 | -90.52489 | 4965 ft | 10 kts | 338° |
| 2026-04-28 23:24 | 14.59415 | -90.52528 | 4965 ft | 5 kts | 289° |
| 2026-04-28 23:25 | 14.59417 | -90.52531 | 4965 ft | 0 kts | 296° |
| 2026-04-28 23:25 | 14.59418 | -90.52533 | 4965 ft | 2 kts | 293° |
| 2026-04-28 23:25 | 14.59419 | -90.52535 | 4965 ft | 0 kts | 293° |